This is the latest recevied weather packets stored in our database for station/object F8KHU-13. If no packets are shown the sender has not sent any weather packets the latest 10 day(s).
| Time | Temp. | Humidity | Pressure | Rain* | Wind** | Luminosity | Snow |
|---|---|---|---|---|---|---|---|
| 1788678664 | 15° C | 30% | 1025.2 hPa | 0 mm | - | 0 W/m² | - |
| 1788677764 | 14.44° C | 30% | 1025.2 hPa | 0 mm | - | 0 W/m² | - |
| 1788677744 | 14.44° C | 30% | 1025.2 hPa | 0 mm | - | 0 W/m² | - |
| 1788676864 | 14.44° C | 30% | 1025.1 hPa | 0 mm | - | 0 W/m² | - |
| 1788676844 | 14.44° C | 30% | 1025.2 hPa | 0 mm | - | 0 W/m² | - |
| 1788675964 | 13.89° C | 31% | 1025.2 hPa | 0 mm | - | 0 W/m² | - |
| 1788675944 | 13.89° C | 30% | 1025.1 hPa | 0 mm | - | 0 W/m² | - |
| 1788675064 | 13.33° C | 30% | 1025.2 hPa | 0 mm | - | 0 W/m² | - |
| 1788675044 | 13.33° C | 31% | 1025.2 hPa | 0 mm | - | 0 W/m² | - |
| 1788675024 | 13.33° C | 30% | 1025.2 hPa | 0 mm | - | 0 W/m² | - |
| 1788674165 | 13.33° C | 31% | 1025.2 hPa | 0 mm | - | 0 W/m² | - |
| 1788674145 | 13.33° C | 31% | 1025.3 hPa | 0 mm | - | 0 W/m² | - |
| 1788673265 | 12.78° C | 31% | 1025.3 hPa | 0 mm | - | 0 W/m² | - |
| 1788673244 | 12.78° C | 31% | 1025.2 hPa | 0 mm | - | 0 W/m² | - |
| 1788672364 | 12.78° C | 31% | 1025.3 hPa | 0 mm | - | 0 W/m² | - |
| 1788672345 | 12.78° C | 31% | 1025.3 hPa | 0 mm | - | 0 W/m² | - |
| 1788672325 | 12.78° C | 31% | 1025.3 hPa | 0 mm | - | 0 W/m² | - |
| 1788671473 | 12.78° C | 31% | 1025.2 hPa | 0 mm | - | 0 W/m² | - |
| 1788671426 | 12.78° C | 31% | 1025.3 hPa | 0 mm | - | 0 W/m² | - |
| 1788670566 | 12.22° C | 31% | 1025.4 hPa | 0 mm | - | 0 W/m² | - |
| 1788670526 | 12.22° C | 31% | 1025.3 hPa | 0 mm | - | 0 W/m² | - |
| 1788645344 | 17.78° C | 28% | 1026.2 hPa | 0 mm | - | 0 W/m² | - |
| 1788644464 | 18.33° C | 28% | 1026.3 hPa | 0 mm | - | 0 W/m² | - |
| 1788644424 | 18.33° C | 28% | 1026.4 hPa | 0 mm | - | 0 W/m² | - |
| 1788643565 | 18.33° C | 28% | 1026.3 hPa | 0 mm | - | 0 W/m² | - |
* Rain latest hour (hover to see other rain measurements)
** Current wind speed in m/s (hover to see current wind gust speed)